Latest Weather Observations for Flinders Island Airport

IDT60801

Issued at 4:31 pm EDT Wednesday 1 April 2015 (issued every 30 minutes, with the page automatically refreshed every 10 minutes)

About weather observations | Map of weather stations | Latest weather observations for TAS | Other Formats
Station Details ID: 099005 Name: FLINDERS ISLAND AIRPORT Lat: -40.09 Lon: 148.00 Height: 9.0 m
Data from the previous 72 hours. | See also: Recent months at Flinders Island Airport
Date/Time
EDT
Temp
°C
App
Temp
°C
Dew
Point
Rel
Hum
%
Delta-T
°C
Wind Press
QNH
hPa
Press
MSL
hPa
Rain
since 9 am
mm
Dir
 
Spd
km/h
Gust
km/h
Spd
kts
Gust
kts
01/04:30pm 25.8 22.6 10.0 37 8.7 NNW 17 24 9 13 1012.7 1012.7 0.0
01/04:00pm 26.8 22.9 9.6 34 9.5 NNW 20 32 11 17 1012.9 1012.9 0.0
01/03:30pm 26.7 22.2 8.6 32 9.8 NNW 22 33 12 18 1013.4 1013.4 0.0
01/03:00pm 27.1 21.9 9.0 32 9.9 NNW 26 35 14 19 1013.8 1013.8 0.0
01/02:30pm 26.1 24.6 15.2 51 6.6 N 17 30 9 16 1014.2 1014.2 0.0
01/02:00pm 24.4 22.9 15.3 57 5.5 N 17 26 9 14 1014.7 1014.7 0.0
01/01:30pm 25.4 23.3 13.6 48 6.9 NNW 17 26 9 14 1015.1 1015.1 0.0
01/01:00pm 24.8 22.7 14.6 53 6.1 NNW 19 26 10 14 1015.8 1015.8 0.0
01/12:30pm 23.9 21.9 14.0 54 5.8 NNW 17 26 9 14 1016.4 1016.4 0.0
01/12:00pm 23.5 22.0 16.8 66 4.1 NNW 20 30 11 16 1016.8 1016.8 0.0
01/11:30am 22.9 23.6 16.0 65 4.2 SSE 7 9 4 5 1017.0 1017.0 0.0
01/11:00am 22.8 22.2 15.6 64 4.3 NNE 13 22 7 12 1017.3 1017.3 0.0
01/10:30am 20.5 18.7 15.9 75 2.7 NE 20 26 11 14 1018.1 1018.0 0.0
01/10:00am 18.9 20.2 17.0 89 1.1 N 6 11 3 6 1018.4 1018.3 0.0
01/09:30am 17.8 20.0 17.5 98 0.2 ESE 2 7 1 4 1018.7 1018.6 0.0
01/09:00am 16.8 16.9 16.6 99 0.1 ENE 11 13 6 7 1018.8 1018.7 0.0
01/08:30am 16.1 16.4 15.9 99 0.1 NE 9 11 5 6 1019.3 1019.2 0.0
01/08:03am 13.6 12.6 13.4 99 0.1 NE 11 13 6 7 1019.4 1019.3 0.0
01/08:00am 13.2 12.1 13.0 99 0.1 NE 11 13 6 7 1019.4 1019.3 0.0
01/07:30am 11.5 10.6 11.3 99 0.1 E 7 9 4 5 1019.5 1019.4 0.0
01/07:16am 12.0 11.2 11.8 99 0.1 E 7 9 4 5 1019.5 1019.4 0.0
01/07:00am 11.4 10.6 11.2 99 0.1 E 6 9 3 5 1019.4 1019.3 0.0
01/06:30am 11.4 10.1 11.2 99 0.1 NE 9 9 5 5 1019.4 1019.3 0.0
01/06:24am 11.9 10.7 11.7 99 0.1 NE 9 9 5 5 1019.5 1019.4 0.0
01/06:00am 10.3 9.0 10.0 98 0.2 NE 7 11 4 6 1019.5 1019.4 0.0
01/05:30am 9.9 9.8 9.6 98 0.1 CALM 0 0 0 0 1019.7 1019.6 0.0
01/05:00am 9.6 9.4 9.1 97 0.2 CALM 0 0 0 0 1019.8 1019.7 0.0
01/04:35am 11.3 11.6 11.0 98 0.2 CALM 0 0 0 0 1020.1 1020.0 0.0
01/04:30am 10.3 10.3 9.8 97 0.3 CALM 0 0 0 0 1020.2 1020.1 0.0
01/04:00am 11.4 10.6 10.9 97 0.3 NE 6 7 3 4 1020.4 1020.3 0.0
01/03:30am 9.9 8.7 9.4 97 0.2 NE 6 7 3 4 1020.7 1020.6 0.0
01/03:00am 10.8 9.6 10.2 96 0.3 ENE 7 9 4 5 1021.3 1021.2 0.0
01/02:42am 10.9 9.7 10.3 96 0.3 ENE 7 9 4 5 1021.7 1021.6 0.0
01/02:30am 11.5 10.5 10.9 96 0.3 ENE 7 9 4 5 1021.9 1021.8 0.0
01/02:00am 12.1 11.3 11.6 97 0.3 NE 7 9 4 5 1022.3 1022.2 0.0
01/01:30am 12.5 11.4 12.0 97 0.3 NE 9 11 5 6 1022.7 1022.6 0.0
01/01:00am 11.7 10.4 11.2 97 0.3 NE 9 13 5 7 1023.0 1022.9 0.0
01/12:30am 10.8 8.8 10.3 97 0.3 NE 11 13 6 7 1023.4 1023.3 0.0
01/12:03am 9.9 8.1 9.4 97 0.2 NE 9 11 5 6 1023.8 1023.7 0.0
01/12:00am 9.7 7.8 9.2 97 0.2 NE 9 11 5 6 1023.8 1023.7 0.0
 
Date/Time
EDT
Temp
°C
App
Temp
°C
Dew
Point
Rel
Hum
%
Delta-T
°C
Wind Press
QNH
hPa
Press
MSL
hPa
Rain
since 9 am
mm
Dir
 
Spd
km/h
Gust
km/h
Spd
kts
Gust
kts
31/11:30pm 10.1 7.5 9.5 96 0.3 NE 13 13 7 7 1024.0 1023.9 0.0
31/11:00pm 9.6 7.6 8.8 95 0.4 NE 9 11 5 6 1024.1 1024.0 0.0
31/10:30pm 10.5 8.8 9.7 95 0.4 ENE 9 11 5 6 1024.2 1024.1 0.0
31/10:00pm 10.7 9.0 9.8 94 0.5 ENE 9 9 5 5 1024.1 1024.0 0.0
31/09:30pm 11.5 10.0 10.7 95 0.4 ENE 9 11 5 6 1024.0 1023.9 0.0
31/09:00pm 11.2 9.2 10.3 94 0.5 NE 11 13 6 7 1023.9 1023.8 0.0
31/08:30pm 11.7 9.8 10.4 92 0.7 NE 11 13 6 7 1023.9 1023.8 0.0
31/08:00pm 12.4 10.8 10.1 86 1.2 N 9 11 5 6 1023.8 1023.7 0.0
31/07:30pm 14.7 14.1 12.2 85 1.4 NW 7 9 4 5 1023.8 1023.7 0.0
31/07:00pm 16.6 15.9 13.1 80 1.9 WNW 9 11 5 6 1023.6 1023.5 0.0
31/06:30pm 17.6 16.9 13.1 75 2.5 WNW 9 11 5 6 1023.7 1023.6 0.0
31/06:00pm 17.9 16.8 13.2 74 2.6 WNW 11 15 6 8 1023.8 1023.7 0.0
31/05:30pm 18.5 16.8 13.6 73 2.8 WSW 15 17 8 9 1024.0 1023.9 0.0
31/05:00pm 19.0 17.4 13.8 72 3.0 W 15 22 8 12 1024.0 1023.9 0.0
31/04:30pm 18.2 16.5 13.5 74 2.7 W 15 20 8 11 1024.0 1023.9 0.0
31/04:00pm 18.9 16.4 13.5 71 3.1 W 19 26 10 14 1024.3 1024.2 0.0
31/03:30pm 19.1 16.7 13.7 71 3.1 WSW 19 24 10 13 1024.3 1024.2 0.0
31/03:00pm 18.9 16.7 13.3 70 3.2 WSW 17 24 9 13 1024.3 1024.2 0.0
31/02:30pm 19.2 16.9 12.9 67 3.6 W 17 22 9 12 1024.5 1024.4 0.0
31/02:00pm 19.1 17.0 13.5 70 3.2 W 17 24 9 13 1024.9 1024.8 0.0
31/01:30pm 19.6 17.2 13.8 69 3.3 WNW 19 26 10 14 1025.2 1025.1 0.0
31/01:00pm 18.9 16.6 12.9 68 3.4 W 17 24 9 13 1025.3 1025.2 0.0
31/12:38pm 18.6 16.2 12.8 69 3.3 WNW 17 22 9 12 1025.6 1025.5 0.0
31/12:30pm 18.7 16.4 13.1 70 3.2 W 17 20 9 11 1025.6 1025.5 0.0
31/12:00pm 18.7 16.1 13.1 70 3.1 WSW 19 24 10 13 1026.1 1026.0 0.0
31/11:30am 18.9 16.2 13.5 71 3.1 WSW 20 24 11 13 1026.4 1026.3 0.0
31/11:20am 18.4 15.5 13.0 71 3.0 WSW 20 24 11 13 1026.5 1026.4 0.0
31/11:00am 18.5 16.0 14.0 75 2.6 WSW 20 26 11 14 1026.7 1026.6 0.0
31/10:30am 18.1 15.6 13.4 74 2.7 WSW 19 22 10 12 1026.6 1026.5 0.0
31/10:00am 18.0 14.5 13.5 75 2.5 W 24 30 13 16 1026.7 1026.6 0.0
31/09:30am 17.4 13.8 14.1 81 1.9 W 26 30 14 16 1026.6 1026.5 0.0
31/09:00am 17.8 15.4 14.3 80 2.0 WNW 20 26 11 14 1026.3 1026.2 0.0
31/08:30am 17.0 15.0 13.9 82 1.8 W 17 22 9 12 1026.1 1026.0 0.0
31/08:00am 16.0 15.2 14.0 88 1.1 NW 11 15 6 8 1025.9 1025.8 0.0
31/07:30am 15.5 13.8 13.5 88 1.1 WNW 15 19 8 10 1025.6 1025.5 0.0
31/07:00am 15.9 13.8 13.7 87 1.2 WNW 17 26 9 14 1025.4 1025.3 0.0
31/06:57am 15.8 13.4 13.8 88 1.1 WNW 19 26 10 14 1025.4 1025.3 0.0
31/06:44am 15.2 13.8 13.4 89 1.0 WNW 13 19 7 10 1025.3 1025.2 0.0
31/06:30am 15.6 13.9 13.6 88 1.1 WNW 15 19 8 10 1025.2 1025.1 0.0
31/06:00am 16.0 13.9 13.7 86 1.3 WNW 17 24 9 13 1025.0 1024.9 0.0
31/05:30am 15.7 13.6 13.5 87 1.2 WNW 17 20 9 11 1025.0 1024.9 0.0
31/05:00am 16.0 14.3 13.5 85 1.4 W 15 20 8 11 1024.9 1024.8 0.0
31/04:30am 15.5 13.6 13.0 85 1.4 WNW 15 17 8 9 1024.8 1024.7 0.0
31/04:00am 15.8 13.5 12.9 83 1.6 W 17 19 9 10 1024.8 1024.7 0.0
31/03:30am 15.9 13.5 12.6 81 1.8 W 17 19 9 10 1024.8 1024.7 0.0
31/03:00am 16.4 12.9 12.2 76 2.3 W 22 28 12 15 1024.9 1024.8 0.0
31/02:30am 16.3 11.6 12.1 76 2.3 WSW 28 33 15 18 1025.0 1024.9 0.0
31/02:00am 15.9 11.1 11.5 75 2.4 WSW 28 33 15 18 1025.0 1024.9 0.0
31/01:30am 16.3 11.1 11.7 74 2.5 W 30 37 16 20 1024.9 1024.8 0.0
31/01:00am 16.4 11.1 12.4 77 2.2 W 32 39 17 21 1024.9 1024.8 0.0
31/12:30am 16.4 11.1 12.6 78 2.1 WSW 32 37 17 20 1024.9 1024.8 0.0
31/12:00am 16.5 11.3 12.8 79 2.0 W 32 37 17 20 1024.9 1024.8 0.0
 
Date/Time
EDT
Temp
°C
App
Temp
°C
Dew
Point
Rel
Hum
%
Delta-T
°C
Wind Press
QNH
hPa
Press
MSL
hPa
Rain
since 9 am
mm
Dir
 
Spd
km/h
Gust
km/h
Spd
kts
Gust
kts
30/11:30pm 16.7 11.3 12.8 78 2.2 W 33 39 18 21 1025.0 1024.9 0.0
30/11:19pm 16.5 11.2 13.2 81 1.8 W 33 41 18 22 1025.1 1025.0 0.0
30/11:00pm 16.4 11.3 13.1 81 1.8 W 32 39 17 21 1025.1 1025.0 0.0
30/10:30pm 16.6 10.9 13.1 80 2.0 W 35 41 19 22 1025.0 1024.9 0.0
30/10:00pm 16.7 10.7 13.4 81 1.8 W 37 41 20 22 1024.9 1024.8 0.0
30/09:30pm 16.8 11.6 13.3 80 2.0 W 33 41 18 22 1024.8 1024.7 0.0
30/09:00pm 16.7 11.6 13.0 79 2.1 W 32 39 17 21 1024.6 1024.5 0.0
30/08:30pm 16.8 11.5 12.5 76 2.4 W 32 37 17 20 1024.6 1024.5 0.0
30/08:00pm 17.0 12.3 13.3 79 2.1 W 30 35 16 19 1024.4 1024.3 0.0
30/07:30pm 16.6 12.3 13.1 80 2.0 W 28 33 15 18 1023.9 1023.8 0.0
30/07:00pm 17.0 11.9 13.1 78 2.2 W 32 39 17 21 1023.7 1023.6 0.0
30/06:55pm 17.1 11.9 12.8 76 2.4 W 32 37 17 20 1023.6 1023.5 0.0
30/06:41pm 17.4 12.0 12.7 74 2.6 W 33 41 18 22 1023.5 1023.4 0.0
30/06:30pm 17.4 12.0 12.7 74 2.6 W 33 39 18 21 1023.4 1023.3 0.0
30/06:00pm 18.0 13.0 13.3 74 2.6 W 32 39 17 21 1022.9 1022.8 0.0
30/05:30pm 18.1 13.5 13.4 74 2.7 W 30 41 16 22 1022.6 1022.5 0.0
30/05:00pm 18.3 13.2 13.6 74 2.7 W 33 41 18 22 1022.4 1022.3 0.0
30/04:30pm 18.8 14.0 13.9 73 2.8 W 32 37 17 20 1022.3 1022.2 0.0
30/04:00pm 19.0 13.5 13.6 71 3.1 W 35 41 19 22 1022.4 1022.3 0.0
30/03:30pm 19.2 13.7 13.6 70 3.2 W 35 46 19 25 1022.4 1022.3 0.0
30/03:04pm 19.7 14.7 13.9 69 3.3 W 33 41 18 22 1022.5 1022.4 0.0
30/03:00pm 19.3 14.2 13.7 70 3.2 W 33 41 18 22 1022.4 1022.3 0.0
30/02:30pm 18.9 13.9 14.0 73 2.8 W 33 43 18 23 1022.6 1022.5 0.0
30/02:01pm 19.1 14.0 13.7 71 3.1 W 33 43 18 23 1022.7 1022.6 0.0
30/02:00pm 19.2 14.1 13.6 70 3.2 W 33 43 18 23 1022.7 1022.6 0.0
30/01:30pm 19.2 13.7 13.6 70 3.2 W 35 43 19 23 1022.8 1022.7 0.0
30/01:00pm 19.5 14.7 13.9 70 3.2 WNW 32 41 17 22 1023.0 1022.9 0.0
30/12:30pm 19.1 14.2 13.7 71 3.1 WNW 32 39 17 21 1023.1 1023.0 0.0
30/12:00pm 18.9 14.0 12.6 67 3.5 WNW 30 37 16 20 1023.1 1023.0 0.0
30/11:30am 19.1 14.2 12.4 65 3.7 WNW 30 39 16 21 1023.2 1023.1 0.0
30/11:00am 18.8 14.6 13.4 71 3.1 WNW 28 39 15 21 1023.1 1023.0 0.0
30/10:30am 18.0 13.5 12.7 71 3.0 WNW 28 35 15 19 1023.0 1022.9 0.0
30/10:00am 17.4 12.4 12.3 72 2.8 WNW 30 37 16 20 1022.9 1022.8 0.0
30/09:30am 17.6 12.9 13.1 75 2.5 WNW 30 39 16 21 1022.7 1022.6 0.0
30/09:00am 17.2 12.8 12.9 76 2.4 WNW 28 37 15 20 1022.5 1022.4 0.0
30/08:30am 16.6 12.2 12.8 78 2.1 WNW 28 35 15 19 1022.2 1022.1 0.0
30/08:00am 16.2 11.7 12.6 79 2.0 WNW 28 33 15 18 1022.0 1021.9 0.0
30/07:30am 15.8 11.2 12.4 80 1.9 WNW 28 33 15 18 1021.8 1021.7 0.0
30/07:00am 15.7 11.9 12.3 80 1.9 WNW 24 35 13 19 1021.5 1021.4 0.0
30/06:30am 15.6 11.8 12.5 82 1.7 WNW 24 35 13 19 1021.3 1021.2 0.0
30/06:00am 15.9 12.1 12.5 80 1.9 WNW 24 33 13 18 1021.2 1021.1 0.0
30/05:30am 15.6 11.4 12.5 82 1.7 WNW 26 32 14 17 1021.1 1021.0 0.0
30/05:00am 15.7 12.0 12.6 82 1.7 WNW 24 33 13 18 1021.0 1020.9 0.0
30/04:30am 15.6 12.3 12.7 83 1.6 WNW 22 30 12 16 1021.1 1021.0 0.0
30/04:00am 15.7 12.8 12.8 83 1.6 WNW 20 28 11 15 1021.3 1021.2 0.0
30/03:30am 15.7 12.7 12.6 82 1.7 WNW 20 28 11 15 1021.4 1021.3 0.0
30/03:00am 15.6 12.8 12.7 83 1.6 WNW 19 26 10 14 1021.5 1021.4 0.0
30/02:30am 15.8 13.1 12.9 83 1.6 WNW 19 26 10 14 1021.7 1021.6 0.0
30/02:18am 16.0 13.7 12.9 82 1.7 WNW 17 24 9 13 1021.8 1021.7 0.0
30/02:00am 15.9 13.3 13.2 84 1.5 WNW 19 28 10 15 1021.8 1021.7 0.0
30/01:47am 15.9 13.7 13.2 84 1.5 WNW 17 20 9 11 1021.8 1021.7 0.0
30/01:30am 15.6 13.0 13.3 86 1.3 WNW 19 26 10 14 1021.8 1021.7 0.0
30/01:21am 15.6 13.0 13.1 85 1.4 W 19 26 10 14 1021.8 1021.7 0.0
30/01:00am 15.9 13.0 13.0 83 1.6 W 20 28 11 15 1021.8 1021.7 0.0
30/12:30am 16.1 13.5 13.2 83 1.6 W 19 26 10 14 1022.0 1021.9 0.0
30/12:28am 16.1 13.3 13.2 83 1.6 W 20 30 11 16 1022.0 1021.9 0.0
30/12:00am 15.9 13.2 13.0 83 1.6 WNW 19 26 10 14 1022.1 1022.0 0.0
 
Date/Time
EDT
Temp
°C
App
Temp
°C
Dew
Point
Rel
Hum
%
Delta-T
°C
Wind Press
QNH
hPa
Press
MSL
hPa
Rain
since 9 am
mm
Dir
 
Spd
km/h
Gust
km/h
Spd
kts
Gust
kts
29/11:30pm 15.9 13.0 12.8 82 1.7 W 20 28 11 15 1022.2 1022.1 0.0
29/11:00pm 16.2 12.6 13.1 82 1.7 W 24 32 13 17 1022.2 1022.1 0.0
29/10:30pm 16.3 12.7 13.0 81 1.8 W 24 32 13 17 1022.1 1022.0 0.0
29/10:00pm 16.2 11.9 13.1 82 1.7 W 28 33 15 18 1021.9 1021.8 0.0
29/09:30pm 16.4 12.0 12.9 80 1.9 W 28 37 15 20 1021.7 1021.6 0.0
29/09:00pm 16.2 11.8 12.9 81 1.8 W 28 35 15 19 1021.5 1021.4 0.0
29/08:40pm 16.5 11.3 12.7 78 2.1 W 32 41 17 22 1021.1 1021.0 0.0
29/08:30pm 16.4 11.0 12.8 79 2.0 W 33 41 18 22 1021.0 1020.9 0.0
29/08:00pm 16.5 11.3 12.8 79 2.0 W 32 41 17 22 1020.8 1020.7 0.0
29/07:30pm 16.5 11.1 12.7 78 2.1 W 33 43 18 23 1020.4 1020.3 0.0
29/07:00pm 16.6 11.1 12.6 77 2.2 W 33 43 18 23 1020.2 1020.1 0.0
29/06:30pm 17.0 11.5 12.3 74 2.6 W 33 41 18 22 1019.9 1019.8 0.0
29/06:00pm 17.9 12.4 12.4 70 3.0 W 33 43 18 23 1019.7 1019.6 0.0
29/05:30pm 17.5 10.8 12.4 72 2.8 W 39 50 21 27 1019.6 1019.5 0.0
29/05:00pm 17.8 11.4 12.0 69 3.2 W 37 46 20 25 1019.5 1019.4 0.0

Other Formats:

Comma delimited format used in spreadsheet applications
http://www.bom.gov.au/fwo/IDT60801/IDT60801.94980.axf

JavaScript Object Notation format (JSON) in row-major order
http://www.bom.gov.au/fwo/IDT60801/IDT60801.94980.json